Latest Weather Observations for East Point

IDD60901

Issued at 12:01 pm CST Saturday 25 May 2024 (issued every 10 minutes, with the page automatically refreshed every 10 minutes)

About weather observations | Map of Darwin area stations | Latest observations for Darwin area | Other Formats
Station Details ID: 014318 Name: EAST POINT Lat: -12.41 Lon: 130.83 Height: 7.08 m
Data from the previous 72 hours. | See also: Recent months for locations in Northern Territory
Date/Time
CST
Temp
°C
App
Temp
°C
Dew
Point
°C
Rel
Hum
%
Delta-T
°C
Wind Press
QNH
hPa
Press
MSL
hPa
Rain since
9am
mm
Dir  Spd
km/h
Gust
km/h
Spd
kts
Gust
kts
25/12:00pm 32.0 34.1 20.9 52 7.4 ENE 11 22 6 12 1013.1 1013.1 0.0
25/11:30am 31.1 32.7 20.7 54 6.9 E 13 24 7 13 1013.4 1013.4 0.0
25/11:00am 31.1 32.5 21.0 55 6.8 ENE 15 30 8 16 1013.5 1013.5 0.0
25/10:30am 30.2 31.0 20.7 56 6.3 ENE 17 28 9 15 1013.6 1013.6 0.0
25/10:00am 29.5 31.0 21.2 61 5.5 E 15 24 8 13 1013.7 1013.7 0.0
25/09:30am 29.2 32.1 22.4 66 4.6 E 11 19 6 10 1013.9 1013.9 0.0
25/09:00am 28.4 31.1 22.9 72 3.7 E 13 20 7 11 1013.8 1013.8 0.0
25/08:30am 27.0 30.5 22.8 78 2.8 ENE 9 19 5 10 1013.6 1013.6 0.0
25/08:00am 26.1 30.2 23.2 84 2.0 ENE 7 11 4 6 1013.4 1013.4 0.0
25/07:30am 24.9 28.9 22.8 88 1.4 E 6 7 3 4 1013.0 1013.0 0.0
25/07:00am 24.8 28.9 23.0 90 1.2 ENE 6 9 3 5 1012.7 1012.7 0.0
25/06:30am 25.1 29.3 23.2 89 1.3 SE 6 9 3 5 1012.4 1012.4 0.0
25/06:00am 25.3 30.0 23.4 89 1.3 SE 4 7 2 4 1012.0 1012.0 0.0
25/05:30am 25.5 30.1 23.2 87 1.6 SE 4 7 2 4 1011.8 1011.8 0.0
25/05:00am 25.7 29.9 23.4 87 1.6 S 7 11 4 6 1011.7 1011.7 0.0
25/04:30am 25.1 29.3 23.5 91 1.1 S 7 13 4 7 1011.6 1011.6 0.0
25/04:00am 24.1 29.1 23.2 95 0.6 S 2 7 1 4 1011.6 1011.6 0.0
25/03:30am 24.1 29.5 23.2 95 0.6 CALM 0 2 0 1 1011.8 1011.8 0.0
25/03:00am 24.2 29.6 23.2 94 0.7 CALM 0 4 0 2 1011.8 1011.8 0.0
25/02:30am 24.7 29.9 23.5 93 0.8 S 2 4 1 2 1012.0 1012.0 0.0
25/02:00am 25.2 29.7 23.6 91 1.1 S 6 9 3 5 1012.1 1012.1 0.0
25/01:30am 25.4 30.5 24.0 92 1.0 S 4 7 2 4 1012.3 1012.3 0.0
25/01:00am 25.8 30.4 23.8 89 1.4 SSW 6 7 3 4 1012.4 1012.4 0.0
25/12:30am 25.8 31.0 24.2 91 1.1 S 4 6 2 3 1012.6 1012.6 0.0
25/12:00am 26.1 32.1 24.3 90 1.2 CALM 0 4 0 2 1012.6 1012.6 0.0
 
Date/Time
CST
Temp
°C
App
Temp
°C
Dew
Point
°C
Rel
Hum
%
Delta-T
°C
Wind Press
QNH
hPa
Press
MSL
hPa
Rain since
9am
mm
Dir  Spd
km/h
Gust
km/h
Spd
kts
Gust
kts
24/11:30pm 26.5 31.3 24.2 87 1.6 SW 6 9 3 5 1012.5 1012.5 0.0
24/11:00pm 26.7 31.7 24.5 88 1.5 SW 6 7 3 4 1012.6 1012.6 0.0
24/10:30pm 26.9 32.3 24.5 87 1.7 SSW 4 7 2 4 1012.6 1012.6 0.0
24/10:00pm 27.0 32.1 24.6 87 1.7 SSW 6 7 3 4 1012.6 1012.6 0.0
24/09:30pm 26.0 32.2 24.6 92 1.0 CALM 0 2 0 1 1012.4 1012.4 0.0
24/09:00pm 26.0 31.1 24.0 89 1.4 N 4 6 2 3 1011.8 1011.8 0.0
24/08:30pm 26.6 32.7 24.4 88 1.5 CALM 0 6 0 3 1011.4 1011.4 0.0
24/08:00pm 26.8 32.4 24.3 86 1.7 N 2 4 1 2 1011.0 1011.0 0.0
24/07:30pm 27.1 32.4 24.4 85 1.9 N 4 7 2 4 1010.6 1010.6 0.0
24/07:00pm 27.4 32.4 24.5 84 2.0 N 6 9 3 5 1010.3 1010.3 0.0
24/06:30pm 27.6 32.3 24.0 81 2.5 N 6 9 3 5 1010.1 1010.1 0.0
24/06:00pm 28.1 32.8 23.9 78 2.9 N 6 11 3 6 1009.8 1009.8 0.0
24/05:30pm 29.2 33.4 23.4 71 4.0 N 7 13 4 7 1009.6 1009.6 0.0
24/05:00pm 29.6 33.4 23.5 69 4.2 NNW 9 15 5 8 1009.5 1009.5 0.0
24/04:30pm 30.2 34.5 23.6 67 4.6 NNW 7 13 4 7 1009.3 1009.3 0.0
24/04:00pm 30.3 34.1 22.7 64 5.2 NNW 7 11 4 6 1009.2 1009.2 0.0
24/03:30pm 31.1 34.9 22.7 61 5.7 NNW 7 17 4 9 1009.2 1009.2 0.0
24/03:00pm 30.1 33.2 22.8 65 5.0 NNW 11 17 6 9 1009.6 1009.6 0.0
24/02:30pm 30.7 33.0 22.0 59 5.9 NNW 13 20 7 11 1009.9 1009.9 0.0
24/02:00pm 31.3 33.6 20.6 53 7.1 NW 9 15 5 8 1010.1 1010.1 0.0
24/01:30pm 33.0 35.5 19.8 45 8.7 E 6 11 3 6 1010.4 1010.4 0.0
24/01:00pm 32.6 34.8 19.5 46 8.6 ESE 7 15 4 8 1010.8 1010.8 0.0
24/12:30pm 31.9 33.5 19.9 49 7.9 ENE 11 19 6 10 1011.2 1011.2 0.0
24/12:00pm 30.7 31.9 19.1 50 7.6 ENE 11 19 6 10 1011.6 1011.6 0.0
24/11:30am 31.3 32.9 19.9 50 7.5 E 11 24 6 13 1012.0 1012.0 0.0
24/11:00am 30.7 32.9 20.3 53 6.9 E 9 19 5 10 1012.3 1012.3 0.0
24/10:30am 29.8 30.8 19.5 54 6.7 ENE 13 22 7 12 1012.5 1012.5 0.0
24/10:00am 28.9 29.8 19.2 55 6.3 ENE 13 24 7 13 1012.8 1012.8 0.0
24/09:30am 28.6 29.1 19.2 56 6.1 ENE 15 26 8 14 1012.9 1012.9 0.0
24/09:00am 27.3 29.5 19.6 62 5.0 ENE 7 13 4 7 1012.5 1012.5 0.0
24/08:30am 26.2 28.3 19.3 65 4.4 E 7 13 4 7 1012.2 1012.2 0.0
24/08:00am 25.0 27.5 19.8 73 3.4 E 6 9 3 5 1011.9 1011.9 0.0
24/07:30am 24.0 26.2 19.3 75 3.0 ENE 6 11 3 6 1011.8 1011.8 0.0
24/07:00am 24.2 26.2 18.8 72 3.4 E 6 11 3 6 1011.7 1011.7 0.0
24/06:30am 24.5 26.6 19.3 73 3.3 ENE 7 11 4 6 1011.6 1011.6 0.0
24/06:00am 24.7 27.2 20.2 76 2.9 ENE 7 11 4 6 1011.3 1011.3 0.0
24/05:30am 24.6 28.4 21.7 84 1.9 ENE 4 7 2 4 1011.1 1011.1 0.0
24/05:00am 24.8 28.9 22.3 86 1.7 E 4 6 2 3 1011.1 1011.1 0.0
24/04:30am 25.4 29.7 22.7 85 1.8 SSE 4 6 2 3 1011.0 1011.0 0.0
24/04:00am 25.5 29.4 23.0 86 1.7 S 7 9 4 5 1011.2 1011.2 0.0
24/03:30am 25.3 29.2 23.0 87 1.6 S 7 11 4 6 1011.3 1011.3 0.0
24/03:00am 24.6 28.7 23.0 91 1.1 S 6 9 3 5 1011.5 1011.5 0.0
24/02:30am 24.2 28.4 22.5 90 1.1 S 4 6 2 3 1011.7 1011.7 0.0
24/02:00am 24.5 28.4 22.6 89 1.3 SSE 6 7 3 4 1011.9 1011.9 0.0
24/01:30am 24.9 28.6 22.6 87 1.5 S 7 11 4 6 1012.3 1012.3 0.0
24/01:00am 25.0 29.0 22.7 87 1.5 SE 6 7 3 4 1012.3 1012.3 0.0
24/12:30am 24.2 28.2 22.1 88 1.4 SSW 4 6 2 3 1012.4 1012.4 0.0
24/12:00am 24.3 28.4 21.6 85 1.8 S 2 2 1 1 1012.2 1012.2 0.0
 
Date/Time
CST
Temp
°C
App
Temp
°C
Dew
Point
°C
Rel
Hum
%
Delta-T
°C
Wind Press
QNH
hPa
Press
MSL
hPa
Rain since
9am
mm
Dir  Spd
km/h
Gust
km/h
Spd
kts
Gust
kts
23/11:30pm 24.4 28.7 21.9 86 1.7 ENE 2 4 1 2 1012.1 1012.1 0.0
23/11:00pm 24.2 28.5 21.9 87 1.5 NNE 2 4 1 2 1012.1 1012.1 0.0
23/10:30pm 24.4 28.3 21.9 86 1.7 NNE 4 6 2 3 1012.2 1012.2 0.0
23/10:00pm 24.6 28.5 21.9 85 1.8 NNE 4 6 2 3 1012.1 1012.1 0.0
23/09:30pm 24.9 28.8 21.8 83 2.1 NNE 4 6 2 3 1011.7 1011.7 0.0
23/09:00pm 25.1 28.8 21.4 80 2.4 NNE 4 7 2 4 1011.6 1011.6 0.0
23/08:30pm 25.5 28.7 21.2 77 2.8 NE 6 7 3 4 1011.4 1011.4 0.0
23/08:00pm 26.4 29.6 21.2 73 3.4 NNE 6 9 3 5 1011.0 1011.0 0.0
23/07:30pm 26.7 29.9 21.2 72 3.6 NNE 6 9 3 5 1010.7 1010.7 0.0
23/07:00pm 27.4 30.0 20.5 66 4.5 NE 7 13 4 7 1010.5 1010.5 0.0
23/06:30pm 27.9 30.5 20.5 64 4.9 NNE 7 11 4 6 1010.0 1010.0 0.0
23/06:00pm 28.6 31.7 21.4 65 4.8 NNE 7 17 4 9 1009.7 1009.7 0.0
23/05:30pm 29.4 31.6 21.1 61 5.5 NNE 11 20 6 11 1009.4 1009.4 0.0
23/05:00pm 29.6 31.6 21.5 61 5.4 N 13 19 7 10 1009.2 1009.2 0.0
23/04:30pm 29.8 31.8 22.3 64 5.1 N 15 22 8 12 1009.0 1009.0 0.0
23/04:00pm 30.2 33.1 22.4 63 5.3 N 11 19 6 10 1009.1 1009.1 0.0
23/03:30pm 30.8 33.5 22.1 59 5.9 N 11 20 6 11 1009.3 1009.3 0.0
23/03:00pm 30.5 33.7 22.4 62 5.5 N 9 15 5 8 1009.7 1009.7 0.0
23/02:30pm 31.8 33.5 18.4 45 8.7 ENE 7 15 4 8 1010.0 1010.0 0.0
23/02:00pm 31.7 33.2 19.0 47 8.3 ENE 9 19 5 10 1010.4 1010.4 0.0
23/01:30pm 31.8 33.5 19.4 47 8.1 ENE 9 20 5 11 1010.9 1010.9 0.0
23/01:00pm 31.2 32.5 19.2 48 7.8 NE 11 24 6 13 1011.5 1011.5 0.0
23/12:30pm 31.3 32.4 19.6 49 7.7 E 13 20 7 11 1011.9 1011.9 0.0
23/12:00pm 30.9 31.7 19.9 52 7.2 ENE 15 24 8 13 1012.5 1012.5 0.0
23/11:30am 30.1 31.1 19.5 53 6.9 ENE 13 26 7 14 1012.6 1012.6 0.0
23/11:00am 29.4 29.1 19.1 54 6.7 E 19 32 10 17 1012.9 1012.9 0.0
23/10:30am 28.6 28.7 19.2 56 6.1 E 17 32 9 17 1013.3 1013.3 0.0
23/10:00am 27.4 27.9 19.2 61 5.3 E 15 22 8 12 1013.6 1013.6 0.0
23/09:30am 26.9 28.1 19.0 62 5.1 E 11 24 6 13 1013.6 1013.6 0.0
23/09:00am 25.4 26.8 18.6 66 4.3 E 9 15 5 8 1013.4 1013.4 0.0
23/08:30am 24.3 25.0 18.0 68 4.0 E 11 19 6 10 1013.0 1013.0 0.0
23/08:00am 23.6 24.7 18.0 71 3.5 ENE 9 13 5 7 1012.7 1012.7 0.0
23/07:30am 23.0 24.3 17.5 71 3.4 E 7 13 4 7 1012.4 1012.4 0.0
23/07:00am 22.8 23.7 17.5 72 3.3 ENE 9 13 5 7 1011.8 1011.8 0.0
23/06:30am 23.0 24.1 17.2 70 3.6 ENE 7 13 4 7 1011.5 1011.5 0.0
23/06:00am 23.3 24.2 17.5 70 3.6 ENE 9 13 5 7 1011.5 1011.5 0.0
23/05:30am 23.3 24.5 17.3 69 3.7 E 7 13 4 7 1011.5 1011.5 0.0
23/05:00am 23.2 24.5 17.2 69 3.7 ENE 6 9 3 5 1011.4 1011.4 0.0
23/04:30am 23.2 24.3 17.2 69 3.7 ENE 7 11 4 6 1011.3 1011.3 0.0
23/04:00am 23.3 24.3 16.8 67 4.0 ENE 7 13 4 7 1011.5 1011.5 0.0
23/03:30am 24.3 24.8 16.6 62 4.7 ENE 9 17 5 9 1011.5 1011.5 0.0
23/03:00am 24.7 25.3 16.9 62 4.8 ESE 9 15 5 8 1011.7 1011.7 0.0
23/02:30am 24.8 26.4 17.8 65 4.4 ESE 6 11 3 6 1011.7 1011.7 0.0
23/02:00am 24.1 26.2 19.0 73 3.2 ESE 6 7 3 4 1011.9 1011.9 0.0
23/01:30am 24.0 26.2 19.3 75 3.0 SE 6 9 3 5 1012.0 1012.0 0.0
23/01:00am 24.3 26.9 20.4 79 2.5 SSE 7 13 4 7 1011.9 1011.9 0.0
23/12:30am 24.4 27.2 20.9 81 2.3 SSE 7 13 4 7 1012.0 1012.0 0.0
23/12:00am 24.5 27.5 21.2 82 2.2 SSE 7 17 4 9 1011.9 1011.9 0.0
 
Date/Time
CST
Temp
°C
App
Temp
°C
Dew
Point
°C
Rel
Hum
%
Delta-T
°C
Wind Press
QNH
hPa
Press
MSL
hPa
Rain since
9am
mm
Dir  Spd
km/h
Gust
km/h
Spd
kts
Gust
kts
22/11:30pm 24.7 27.7 21.2 81 2.3 SSE 7 15 4 8 1012.0 1012.0 0.0
22/11:00pm 25.2 27.8 21.9 82 2.2 S 11 15 6 8 1012.0 1012.0 0.0
22/10:30pm 24.8 27.6 20.9 79 2.6 SE 7 15 4 8 1012.1 1012.1 0.0
22/10:00pm 24.2 26.9 19.5 75 3.0 NNE 4 6 2 3 1012.1 1012.1 0.0
22/09:30pm 24.9 27.2 19.5 72 3.5 N 6 6 3 3 1011.9 1011.9 0.0
22/09:00pm 25.1 27.4 19.5 71 3.6 ENE 6 7 3 4 1011.8 1011.8 0.0
22/08:30pm 25.5 27.8 19.4 69 3.9 ENE 6 7 3 4 1011.5 1011.5 0.0
22/08:00pm 25.3 27.6 19.4 70 3.8 ENE 6 6 3 3 1011.2 1011.2 0.0
22/07:30pm 26.1 28.4 19.5 67 4.3 ENE 6 7 3 4 1010.8 1010.8 0.0
22/07:00pm 26.8 29.1 19.4 64 4.8 ENE 6 6 3 3 1010.5 1010.5 0.0
22/06:30pm 28.1 30.2 19.3 58 5.7 NE 7 11 4 6 1010.2 1010.2 0.0
22/06:00pm 29.0 30.7 19.3 55 6.3 NE 9 17 5 9 1009.7 1009.7 0.0
22/05:30pm 30.1 31.9 18.8 50 7.3 ENE 7 17 4 9 1009.4 1009.4 0.0
22/05:00pm 31.1 32.2 18.1 46 8.4 NE 9 17 5 9 1009.3 1009.3 0.0
22/04:30pm 31.4 32.4 17.7 44 8.8 ENE 9 20 5 11 1009.3 1009.3 0.0
22/04:00pm 31.3 32.2 17.6 44 8.7 ENE 9 15 5 8 1009.4 1009.4 0.0
22/03:30pm 31.9 32.4 17.4 42 9.2 NE 11 22 6 12 1009.5 1009.5 0.0
22/03:00pm 31.8 32.8 17.7 43 9.0 ENE 9 17 5 9 1009.8 1009.8 0.0
22/02:30pm 31.7 31.7 17.2 42 9.2 NE 13 22 7 12 1010.0 1010.0 0.0
22/02:00pm 31.2 31.5 17.9 45 8.5 NE 13 24 7 13 1010.2 1010.2 0.0
22/01:30pm 31.1 32.0 18.5 47 8.1 NE 11 19 6 10 1010.6 1010.6 0.0
22/01:00pm 30.3 30.5 17.7 46 8.0 ENE 13 22 7 12 1011.1 1011.1 0.0
22/12:30pm 29.8 29.7 17.9 48 7.6 ENE 15 26 8 14 1011.5 1011.5 0.0

Latest Capital City Observations: Canberra | Sydney | Melbourne | Brisbane | Adelaide | Perth | Hobart | Darwin

Other formats

Comma delimited format used in spreadsheet applications
http://www.bom.gov.au/fwo/IDD60901/IDD60901.94002.axf

JavaScript Object Notation format (JSON) in row-major order
http://www.bom.gov.au/fwo/IDD60901/IDD60901.94002.json

Data quality

Most of these data are generated automatically and are frequently updated. Quality checks on data are not normally performed. It is possible for incorrect values to appear. Refer to information at About Latest Weather Observations and please check the disclaimer before using these data.